Flight Track Log - Related Links

Times and Time Zones

All times are in EST time to prevent confusion due to time zone crossing. See the CES5800 flight status page for this flight to view local times or setup timezone preferences in your user account.


Time Position Orientation Groundspeed Altitude Reporting Facility
EST Latitude Longitude Course Direction KTS MPH feet Rate Location/Type
Sun 03:35:00 AM 37.7905 118.7257 243° Southwest  Level Estimated
Sun 03:36:00 AM 37.7488 118.6304 241° Southwest  Level Estimated
Sun 03:37:00 AM 37.7070 118.5351 241° Southwest  Level Estimated
Sun 03:38:00 AM 37.6651 118.4399 241° Southwest  Level Estimated
Sun 03:39:00 AM 37.6232 118.3449 241° Southwest  Level Estimated
Sun 03:40:00 AM 37.5812 118.2499 241° Southwest  Level Estimated
Sun 03:41:00 AM 37.5391 118.1551 241° Southwest  Level Estimated
Sun 03:42:00 AM 37.4969 118.0604 241° Southwest  Level Estimated
Sun 03:43:00 AM 37.4547 117.9658 241° Southwest  Level Estimated
Sun 03:44:00 AM 37.4124 117.8713 241° Southwest  Level Estimated
Sun 03:45:00 AM 37.3700 117.7768 241° Southwest  Level Estimated
Sun 03:46:00 AM 37.3275 117.6825 240° Southwest  Level Estimated
Sun 03:47:00 AM 37.2850 117.5884 240° Southwest  Level Estimated
Sun 03:48:00 AM 37.2424 117.4943 240° Southwest  Level Estimated
Sun 03:49:00 AM 37.1997 117.4003 240° Southwest  Level Estimated
Sun 03:50:00 AM 37.1569 117.3064 240° Southwest  Level Estimated
Sun 03:51:00 AM 37.1141 117.2126 240° Southwest  Level Estimated
Sun 03:52:00 AM 37.0712 117.1190 240° Southwest  Level Estimated
Sun 03:53:00 AM 37.0282 117.0254 240° Southwest  Level Estimated
Sun 03:54:00 AM 36.9851 116.9320 240° Southwest  Level Estimated
Sun 03:55:00 AM 36.9420 116.8387 240° Southwest  Level Estimated
Sun 03:56:00 AM 36.8988 116.7454 240° Southwest  Level Estimated
Sun 03:57:00 AM 36.8555 116.6523 240° Southwest  Level Estimated
Sun 03:58:00 AM 36.8122 116.5592 240° Southwest  Level Estimated
Sun 03:59:00 AM 36.7688 116.4663 240° Southwest  Level Estimated
Sun 04:00:00 AM 36.7253 116.3735 240° Southwest  Level Estimated
Sun 04:01:00 AM 36.6817 116.2808 240° Southwest  Level Estimated
Sun 04:02:00 AM 36.6381 116.1882 240° Southwest  Level Estimated
Sun 04:03:00 AM 36.5944 116.0957 240° Southwest  Level Estimated
Sun 04:04:00 AM 36.5506 116.0033 239° Southwest  Level Estimated
Sun 04:05:00 AM 36.5067 115.9110 239° Southwest  Level Estimated
Sun 04:06:00 AM 36.4628 115.8188 239° Southwest  Level Estimated
Sun 04:07:00 AM 36.4188 115.7267 239° Southwest  Level Estimated
Sun 04:08:00 AM 36.3748 115.6348 239° Southwest  Level Estimated
Sun 04:09:00 AM 36.3306 115.5429 239° Southwest  Level Estimated
Sun 04:10:00 AM 36.2864 115.4511 239° Southwest  Level Estimated
Sun 04:11:00 AM 36.2422 115.3594 239° Southwest  Level Estimated
Sun 04:12:00 AM 36.1978 115.2679 239° Southwest  Level Estimated
Sun 04:13:00 AM 36.1534 115.1764 239° Southwest  Level Estimated
Sun 04:14:00 AM 36.1089 115.0851 239° Southwest  Level Estimated
Sun 04:15:00 AM 36.0644 114.9938 239° Southwest  Level Estimated
Sun 04:16:00 AM 36.0198 114.9027 239° Southwest  Level Estimated
Sun 04:17:00 AM 35.9751 114.8116 239° Southwest  Level Estimated
Sun 04:18:00 AM 35.9303 114.7207 239° Southwest  Level Estimated
Sun 04:19:00 AM 35.8855 114.6299 239° Southwest  Level Estimated
Sun 04:20:00 AM 35.8406 114.5391 239° Southwest  Level Estimated
Sun 04:21:00 AM 35.7956 114.4485 239° Southwest  Level Estimated
Sun 04:22:00 AM 35.7506 114.3580 239° Southwest  Level Estimated
Sun 04:23:00 AM 35.7055 114.2675 238° Southwest  Level Estimated
Sun 04:24:00 AM 35.6603 114.1772 238° Southwest  Level Estimated
Sun 04:25:00 AM 35.6151 114.0870 238° Southwest  Level Estimated
Sun 04:26:00 AM 35.5698 113.9969 238° Southwest  Level Estimated
Sun 04:27:00 AM 35.5244 113.9069 238° Southwest  Level Estimated
Sun 04:28:00 AM 35.4790 113.8169 238° Southwest  Level Estimated
Sun 04:29:00 AM 35.4335 113.7271 238° Southwest  Level Estimated
Sun 04:30:00 AM 35.3879 113.6374 238° Southwest  Level Estimated
Sun 04:31:00 AM 35.3423 113.5478 238° Southwest  Level Estimated
Sun 04:32:00 AM 35.2966 113.4583 238° Southwest  Level Estimated
Sun 04:33:00 AM 35.2508 113.3689 238° Southwest  Level Estimated
Sun 04:34:00 AM 35.2049 113.2796 238° Southwest  Level Estimated
Sun 04:35:00 AM 35.1590 113.1904 238° Southwest  Level Estimated
Sun 04:36:00 AM 35.1131 113.1012 238° Southwest  Level Estimated
Sun 04:37:00 AM 35.0671 113.0122 238° Southwest  Level Estimated
Sun 04:38:00 AM 35.0210 112.9233 238° Southwest  Level Estimated
Sun 04:39:00 AM 34.9748 112.8345 238° Southwest  Level Estimated
Sun 04:40:00 AM 34.9286 112.7458 238° Southwest  Level Estimated
Sun 04:41:00 AM 34.8787 112.6504 238° Southwest  Level Estimated
Sun 04:42:00 AM 34.8288 112.5551 237° Southwest  Level Estimated
Sun 04:43:00 AM 34.7788 112.4599 237° Southwest  Level Estimated
Sun 04:44:00 AM 34.7411 112.3883 237° Southwest  Level Estimated
Sun 04:45:00 AM 34.7411 112.3883 68° East  Level Estimated
Sun 04:46:00 AM 34.7411 112.3883 68° East  Level Estimated

Login

Don't have an account? Register now (free) for customized features, flight alerts, and more!